UUWW/VKO METAR and TAF weather

Enter ICAO airport designator
Station Type Date Time Source
UUWW METAR 2019/06/24 23:00 UTC NOAA

UUWW 242300Z 36002MPS 330V040 CAVOK 16/07 Q1026 R06/000070 NOSIG


Station Type Date Time Source
UUWW Decoded METAR 2019/06/24 23:00 UTC NOAA

Moscow / Vnukovo , Russia (UUWW) 55-39N 037-16E
Jun 24, 2019 - 07:00 PM EDT / 2019.06.24 2300 UTC
Wind: from the N (360 degrees) at 4 MPH (4 KT) (direction variable):0
Visibility: greater than 7 mile(s):0
Temperature: 60 F (16 C)
Dew Point: 44 F (7 C)
Relative Humidity: 55%
Pressure (altimeter): 30.30 in. Hg (1026 hPa)
ob: UUWW 242300Z 36002MPS 330V040 CAVOK 16/07 Q1026 R06/000070 NOSIG
cycle: 23

Station Type Date Time Source
UUWW TAF 2019/06/24 21:21 UTC NOAA

TAF UUWW 241950Z 2421/2521 VRB01MPS 9999 SCT040 TX23/2512Z TN11/2503Z
BECMG 2503/2505 33005G12MPS
BECMG 2516/2518 03003MPS

Example: see airport list